Time;durP1;ratioP1;P1;durP2;ratioP2;P2;SDS_P1;SDS_P2;PMS_P1;PMS_P2;Temp;Humidity;BMP_temperature;BMP_pressure;BME280_temperature;BME280_humidity;BME280_pressure;Samples;Min_cycle;Max_cycle;Signal;HPM_P1;HPM_P2
2024/03/15 00:02:01;;;;;;;69.10;35.60;;;;;;;5.03;100.00;100713.09;105829;1260;99368;-80
2024/03/15 00:04:47;;;;;;;72.10;36.40;;;;;;;5.01;100.00;100713.13;105918;1260;100553;-81
2024/03/15 00:07:34;;;;;;;71.10;39.20;;;;;;;4.99;100.00;100715.25;106389;1260;99142;-80
2024/03/15 00:10:20;;;;;;;69.90;35.10;;;;;;;4.97;100.00;100714.10;106642;1259;99236;-81
2024/03/15 00:13:06;;;;;;;73.90;34.80;;;;;;;4.92;100.00;100715.91;106634;1262;103564;-80
2024/03/15 00:15:52;;;;;;;68.10;35.60;;;;;;;4.90;100.00;100714.55;106111;1261;99343;-79
2024/03/15 00:18:37;;;;;;;64.60;34.90;;;;;;;4.89;100.00;100714.83;105985;1261;99789;-80
2024/03/15 00:21:24;;;;;;;71.20;37.20;;;;;;;4.88;100.00;100720.79;105973;1261;99410;-79
2024/03/15 00:24:09;;;;;;;68.20;36.70;;;;;;;4.86;100.00;100713.20;105995;1263;100344;-80
2024/03/15 00:26:55;;;;;;;66.50;34.70;;;;;;;4.83;100.00;100714.17;106543;1264;102936;-81
2024/03/15 00:29:40;;;;;;;68.80;37.40;;;;;;;4.80;100.00;100713.42;106417;1260;99339;-79
2024/03/15 00:32:27;;;;;;;69.40;37.40;;;;;;;4.77;100.00;100712.09;106526;1260;99346;-81
2024/03/15 00:35:12;;;;;;;70.10;36.60;;;;;;;4.75;100.00;100712.11;106036;1260;99383;-80
2024/03/15 00:37:58;;;;;;;69.70;35.90;;;;;;;4.72;100.00;100710.80;106020;1263;100352;-81
2024/03/15 00:40:43;;;;;;;65.90;34.70;;;;;;;4.67;100.00;100706.14;106369;1264;104728;-80
2024/03/15 00:43:29;;;;;;;64.80;34.10;;;;;;;4.63;99.91;100706.91;106429;1260;99903;-80
2024/03/15 00:46:15;;;;;;;70.10;35.90;;;;;;;4.59;100.00;100702.52;106481;1259;99294;-81
2024/03/15 00:49:00;;;;;;;65.20;36.40;;;;;;;4.57;99.99;100699.37;106514;1259;99352;-79
2024/03/15 00:51:46;;;;;;;63.80;36.10;;;;;;;4.55;100.00;100698.09;106399;1260;99769;-80
2024/03/15 00:54:31;;;;;;;76.10;38.40;;;;;;;4.55;100.00;100694.77;106126;1263;102710;-80
2024/03/15 00:57:17;;;;;;;76.90;37.50;;;;;;;4.53;100.00;100694.91;106344;1260;99763;-81
2024/03/15 01:00:04;;;;;;;82.70;39.50;;;;;;;4.52;100.00;100693.31;106591;1260;99306;-80
2024/03/15 01:02:50;;;;;;;74.00;38.90;;;;;;;4.50;100.00;100691.58;106478;1263;99421;-80
2024/03/15 01:05:35;;;;;;;75.80;40.00;;;;;;;4.47;100.00;100692.38;106475;1260;99904;-80
2024/03/15 01:08:22;;;;;;;79.40;42.00;;;;;;;4.45;100.00;100693.64;106091;1264;104295;-79
2024/03/15 01:11:07;;;;;;;81.20;42.20;;;;;;;4.42;100.00;100693.70;105900;1260;99352;-80
2024/03/15 01:13:57;;;;;;;74.20;39.70;;;;;;;4.39;100.00;100686.77;106475;1259;99251;-80
2024/03/15 01:16:46;;;;;;;74.80;40.20;;;;;;;4.36;100.00;100684.79;105911;1264;99216;-79
2024/03/15 01:19:33;;;;;;;76.00;39.60;;;;;;;4.32;100.00;100687.94;106053;1262;99417;-80
2024/03/15 01:22:21;;;;;;;72.20;37.70;;;;;;;4.29;100.00;100681.52;106038;1265;102709;-80
2024/03/15 01:25:06;;;;;;;72.40;37.40;;;;;;;4.27;100.00;100684.70;106045;1261;100350;-80
2024/03/15 01:27:51;;;;;;;75.80;39.40;;;;;;;4.25;100.00;100681.37;106030;1260;99118;-81
2024/03/15 01:30:37;;;;;;;72.50;38.70;;;;;;;4.24;100.00;100676.20;106020;1259;99714;-81
2024/03/15 01:33:23;;;;;;;71.10;39.50;;;;;;;4.23;100.00;100675.08;106058;1261;99728;-80
2024/03/15 01:36:08;;;;;;;73.60;38.90;;;;;;;4.22;100.00;100674.27;105896;1259;103414;-80
2024/03/15 01:38:54;;;;;;;75.50;41.20;;;;;;;4.20;100.00;100677.81;105786;1262;100413;-81
2024/03/15 01:41:40;;;;;;;78.70;41.30;;;;;;;4.19;100.00;100675.99;106181;1259;99382;-80
2024/03/15 01:44:25;;;;;;;70.50;38.70;;;;;;;4.17;100.00;100674.94;106090;1259;99237;-81
2024/03/15 01:47:11;;;;;;;71.90;38.70;;;;;;;4.15;100.00;100676.51;106258;1260;99247;-79
2024/03/15 01:49:58;;;;;;;76.40;37.80;;;;;;;4.14;100.00;100678.54;106308;1259;103737;-80
2024/03/15 01:52:44;;;;;;;81.10;39.40;;;;;;;4.12;100.00;100672.88;106258;1263;174249;-79
2024/03/15 01:55:32;;;;;;;77.10;37.00;;;;;;;4.11;100.00;100674.27;106487;1262;99293;-82
2024/03/15 01:58:18;;;;;;;71.30;36.60;;;;;;;4.10;100.00;100669.77;106287;1259;99302;-80
2024/03/15 02:01:04;;;;;;;73.00;38.10;;;;;;;4.09;100.00;100667.23;106556;1264;99410;-80
2024/03/15 02:03:49;;;;;;;75.90;38.60;;;;;;;4.08;100.00;100664.52;106509;1259;102793;-80
2024/03/15 02:06:37;;;;;;;73.70;37.10;;;;;;;4.06;100.00;100662.70;106380;1259;99751;-81
2024/03/15 02:09:28;;;;;;;71.00;36.80;;;;;;;4.05;100.00;100663.84;106477;1259;99249;-81
2024/03/15 02:12:13;;;;;;;68.00;36.30;;;;;;;4.06;100.00;100664.14;105976;1262;100588;-80
2024/03/15 02:14:59;;;;;;;68.10;37.70;;;;;;;4.05;100.00;100663.70;105888;1259;99853;-79
2024/03/15 02:17:44;;;;;;;73.40;36.60;;;;;;;4.03;100.00;100662.98;106027;1264;104058;-80
2024/03/15 02:20:31;;;;;;;71.60;38.30;;;;;;;4.01;100.00;100664.77;106009;1259;99238;-81
2024/03/15 02:23:16;;;;;;;71.50;36.50;;;;;;;4.00;100.00;100665.28;106357;1259;99345;-80
2024/03/15 02:26:02;;;;;;;76.20;38.70;;;;;;;3.98;100.00;100664.19;106493;1264;97765;-80
2024/03/15 02:28:48;;;;;;;76.20;40.20;;;;;;;3.96;100.00;100667.04;106068;1260;99698;-80
2024/03/15 02:31:35;;;;;;;74.60;37.70;;;;;;;3.94;100.00;100673.55;106460;1259;103928;-80
2024/03/15 02:34:21;;;;;;;82.40;41.90;;;;;;;3.91;100.00;100671.67;106488;1263;99481;-81
2024/03/15 02:37:07;;;;;;;74.10;40.00;;;;;;;3.89;100.00;100667.65;106529;1259;99314;-81
2024/03/15 02:39:52;;;;;;;75.90;40.60;;;;;;;3.87;100.00;100665.73;106598;1259;99403;-81
2024/03/15 02:42:38;;;;;;;77.10;41.90;;;;;;;3.85;100.00;100659.73;106508;1259;99211;-80
2024/03/15 02:45:25;;;;;;;80.40;42.70;;;;;;;3.83;100.00;100659.23;106453;1259;104028;-80
2024/03/15 02:48:11;;;;;;;78.60;39.70;;;;;;;3.80;100.00;100655.75;106387;1259;100381;-80
2024/03/15 02:50:57;;;;;;;75.40;39.10;;;;;;;3.80;100.00;100656.64;106419;1264;99322;-80
2024/03/15 02:53:43;;;;;;;79.10;38.10;;;;;;;3.80;100.00;100655.45;106339;1259;99301;-80
2024/03/15 02:56:29;;;;;;;78.10;39.50;;;;;;;3.77;100.00;100654.97;105945;1264;99786;-81
2024/03/15 02:59:15;;;;;;;80.00;38.90;;;;;;;3.74;100.00;100656.90;106278;1260;104588;-81
2024/03/15 03:02:00;;;;;;;78.60;39.70;;;;;;;3.72;100.00;100656.01;106503;1260;99221;-80
2024/03/15 03:04:46;;;;;;;73.20;37.70;;;;;;;3.72;100.00;100656.20;106514;1260;99864;-80
2024/03/15 03:07:31;;;;;;;72.90;38.20;;;;;;;3.71;100.00;100657.67;106614;1259;99339;-81
2024/03/15 03:10:17;;;;;;;73.00;36.50;;;;;;;3.70;100.00;100658.30;106335;1261;99804;-79
2024/03/15 03:13:02;;;;;;;73.20;37.70;;;;;;;3.68;100.00;100658.11;106302;1259;103431;-80
2024/03/15 03:15:48;;;;;;;74.10;38.20;;;;;;;3.67;100.00;100658.41;105953;1259;99740;-80
2024/03/15 03:18:34;;;;;;;69.90;37.40;;;;;;;3.65;100.00;100654.40;106208;1260;99340;-79
2024/03/15 03:21:19;;;;;;;77.20;40.20;;;;;;;3.63;100.00;100657.75;106338;1259;97918;-81
2024/03/15 03:24:05;;;;;;;80.90;40.10;;;;;;;3.62;100.00;100663.36;106431;1264;99420;-81
2024/03/15 03:26:50;;;;;;;82.80;41.30;;;;;;;3.60;100.00;100666.02;106420;1259;102937;-79
2024/03/15 03:29:36;;;;;;;79.20;42.90;;;;;;;3.58;100.00;100669.35;106537;1262;99918;-80
2024/03/15 03:32:21;;;;;;;84.00;41.50;;;;;;;3.55;100.00;100669.30;106323;1264;99406;-78
2024/03/15 03:35:07;;;;;;;76.20;38.40;;;;;;;3.53;100.00;100671.95;106330;1259;99481;-80
2024/03/15 03:37:53;;;;;;;78.90;40.40;;;;;;;3.51;100.00;100673.14;106523;1264;99781;-81
2024/03/15 03:40:39;;;;;;;74.90;38.40;;;;;;;3.50;100.00;100674.37;106455;1263;102739;-80
2024/03/15 03:43:25;;;;;;;76.40;39.00;;;;;;;3.47;100.00;100674.73;105926;1259;100508;-81
2024/03/15 03:46:12;;;;;;;69.80;36.40;;;;;;;3.45;100.00;100673.35;105801;1264;99372;-80
2024/03/15 03:48:58;;;;;;;71.50;36.60;;;;;;;3.41;100.00;100670.71;106482;1262;99323;-82
2024/03/15 03:51:43;;;;;;;77.10;36.90;;;;;;;3.39;100.00;100669.66;106581;1259;99839;-81
2024/03/15 03:54:30;;;;;;;67.30;37.30;;;;;;;3.38;100.00;100669.60;106554;1261;104036;-81
2024/03/15 03:57:22;;;;;;;71.80;36.10;;;;;;;3.36;100.00;100669.46;106339;1263;99760;-80
2024/03/15 04:00:13;;;;;;;68.20;35.60;;;;;;;3.35;100.00;100673.05;106357;1259;99304;-81
2024/03/15 04:02:59;;;;;;;;;;;;;;;3.35;100.00;100672.70;106493;1259;99270;-81
2024/03/15 04:05:44;;;;;;;68.30;34.20;;;;;;;3.32;100.00;100672.25;106334;1261;99307;-79
2024/03/15 04:08:30;;;;;;;68.90;34.50;;;;;;;3.31;100.00;100672.36;105890;1259;103965;-81
2024/03/15 04:11:15;;;;;;;75.90;38.70;;;;;;;3.30;100.00;100669.48;106394;1259;100584;-81
2024/03/15 04:14:03;;;;;;;68.00;37.10;;;;;;;3.28;100.00;100671.27;106414;1259;99318;-82
2024/03/15 04:16:49;;;;;;;69.80;36.40;;;;;;;3.26;100.00;100670.66;106560;1259;97657;-82
2024/03/15 04:19:34;;;;;;;74.70;37.70;;;;;;;3.25;100.00;100671.15;106438;1260;99307;-80
2024/03/15 04:22:25;;;;;;;71.20;36.50;;;;;;;3.23;100.00;100672.39;106498;1260;103423;-81
2024/03/15 04:25:19;;;;;;;70.60;37.70;;;;;;;3.20;100.00;100674.42;106305;1260;99730;-82
2024/03/15 04:28:06;;;;;;;62.90;36.40;;;;;;;3.14;100.00;100671.79;106404;1264;99391;-80
2024/03/15 04:30:56;;;;;;;68.30;35.10;;;;;;;3.10;100.00;100673.02;106375;1259;99301;-79
2024/03/15 04:33:42;;;;;;;64.50;34.50;;;;;;;3.08;100.00;100673.23;106495;1262;99199;-81
2024/03/15 04:36:30;;;;;;;64.20;34.60;;;;;;;3.04;100.00;100672.19;106341;1260;104539;-80
2024/03/15 04:39:15;;;;;;;64.10;36.30;;;;;;;3.01;100.00;100669.63;106480;1260;99740;-82
2024/03/15 04:42:04;;;;;;;70.00;38.30;;;;;;;3.00;100.00;100667.98;106511;1261;99279;-80
2024/03/15 04:44:50;;;;;;;66.10;35.60;;;;;;;2.97;100.00;100671.02;106894;1260;99216;-81
2024/03/15 04:47:43;;;;;;;68.70;37.60;;;;;;;2.93;100.00;100675.62;106390;1259;99300;-80
2024/03/15 04:50:30;;;;;;;69.90;38.30;;;;;;;2.90;100.00;100678.59;106634;1259;102718;-80
2024/03/15 04:53:15;;;;;;;68.40;37.10;;;;;;;2.88;100.00;100682.80;106560;1260;99091;-80
2024/03/15 04:56:02;;;;;;;71.70;38.00;;;;;;;2.86;100.00;100684.77;106410;1259;99303;-81
2024/03/15 04:58:47;;;;;;;67.70;35.70;;;;;;;2.81;100.00;100685.85;106188;1265;97926;-79
2024/03/15 05:01:33;;;;;;;76.00;37.00;;;;;;;2.77;100.00;100684.13;106429;1259;99119;-79
2024/03/15 05:04:18;;;;;;;65.70;35.10;;;;;;;2.73;100.00;100685.50;105985;1264;102769;-80
2024/03/15 05:07:05;;;;;;;82.30;34.10;;;;;;;2.71;100.00;100687.98;106298;1259;100382;-80
2024/03/15 05:09:50;;;;;;;103.40;38.10;;;;;;;2.68;100.00;100685.59;106433;1261;99385;-80
2024/03/15 05:12:36;;;;;;;94.10;35.70;;;;;;;2.63;100.00;100687.31;105964;1264;99306;-78
2024/03/15 05:15:21;;;;;;;80.60;35.80;;;;;;;2.59;100.00;100687.80;105994;1260;99800;-80
2024/03/15 05:18:07;;;;;;;75.60;33.90;;;;;;;2.58;100.00;100691.65;105800;1259;103982;-79
2024/03/15 05:20:53;;;;;;;85.80;32.20;;;;;;;2.59;100.00;100694.37;105869;1264;99240;-79
2024/03/15 05:23:39;;;;;;;74.10;31.80;;;;;;;2.59;100.00;100695.99;105839;1262;99408;-79
2024/03/15 05:26:25;;;;;;;77.10;32.60;;;;;;;2.57;100.00;100695.09;105868;1264;99306;-79
2024/03/15 05:29:10;;;;;;;88.60;32.30;;;;;;;2.54;100.00;100694.61;105959;1265;99298;-80
2024/03/15 05:31:55;;;;;;;67.60;30.50;;;;;;;2.54;100.00;100695.33;105952;1263;103946;-79
2024/03/15 05:34:41;;;;;;;65.40;31.40;;;;;;;2.55;100.00;100698.09;105989;1264;99226;-79
2024/03/15 05:37:28;;;;;;;63.60;31.60;;;;;;;2.57;100.00;100697.88;105874;1260;99343;-79
2024/03/15 05:40:14;;;;;;;64.80;32.60;;;;;;;2.61;100.00;100700.20;105819;1265;99848;-79
2024/03/15 05:43:00;;;;;;;89.40;37.10;;;;;;;2.64;100.00;100702.70;105891;1260;99837;-80
2024/03/15 05:45:46;;;;;;;63.60;31.80;;;;;;;2.65;100.00;100701.55;105927;1263;104154;-78
2024/03/15 05:48:32;;;;;;;67.80;31.80;;;;;;;2.68;100.00;100704.17;105913;1264;100073;-80
2024/03/15 05:51:20;;;;;;;66.20;30.30;;;;;;;2.71;100.00;100706.55;105887;1264;99454;-79
2024/03/15 05:54:06;;;;;;;54.80;27.70;;;;;;;2.75;100.00;100703.52;105907;1264;99320;-79
2024/03/15 05:56:51;;;;;;;58.50;28.40;;;;;;;2.79;100.00;100704.58;106254;1263;99326;-80
2024/03/15 05:59:37;;;;;;;60.00;29.60;;;;;;;2.82;100.00;100704.52;106218;1259;103987;-78
2024/03/15 06:02:22;;;;;;;61.70;31.90;;;;;;;2.85;100.00;100705.65;106285;1259;100771;-78
2024/03/15 06:05:09;;;;;;;63.90;29.20;;;;;;;2.89;100.00;100708.62;105770;1259;99446;-80
2024/03/15 06:07:55;;;;;;;68.40;32.20;;;;;;;2.94;100.00;100706.43;105821;1265;99390;-79
2024/03/15 06:10:40;;;;;;;58.70;30.20;;;;;;;2.96;100.00;100706.39;105808;1265;99523;-78
2024/03/15 06:13:27;;;;;;;66.60;32.30;;;;;;;2.99;100.00;100703.83;105906;1259;102679;-78
2024/03/15 06:16:16;;;;;;;60.60;30.60;;;;;;;3.03;100.00;100707.52;105821;1259;100050;-78
2024/03/15 06:19:04;;;;;;;57.40;30.90;;;;;;;3.08;100.00;100707.97;105865;1264;99203;-80
2024/03/15 06:21:50;;;;;;;58.00;30.20;;;;;;;3.13;100.00;100707.32;105804;1259;100126;-80
2024/03/15 06:24:35;;;;;;;52.90;28.20;;;;;;;3.18;100.00;100706.20;105878;1264;99843;-80
2024/03/15 06:27:21;;;;;;;60.60;31.10;;;;;;;3.24;100.00;100705.17;106440;1259;102740;-79
2024/03/15 06:30:08;;;;;;;61.30;32.10;;;;;;;3.25;100.00;100704.51;106400;1264;99998;-81
2024/03/15 06:32:59;;;;;;;57.90;28.50;;;;;;;3.26;100.00;100706.02;106383;1259;99315;-81
2024/03/15 06:35:51;;;;;;;52.80;27.90;;;;;;;3.29;100.00;100706.23;106330;1259;97967;-80
2024/03/15 06:41:37;;;;;;;60.80;29.10;;;;;;;3.41;100.00;100709.92;106346;1264;102718;-80
2024/03/15 06:44:35;;;;;;;58.80;29.70;;;;;;;3.46;100.00;100708.23;106208;1259;100353;-78
2024/03/15 06:47:28;;;;;;;59.30;28.90;;;;;;;3.49;100.00;100709.86;106103;1259;99390;-79
2024/03/15 06:53:01;;;;;;;54.40;27.70;;;;;;;3.59;100.00;100714.80;105759;1259;99858;-79
2024/03/15 06:55:48;;;;;;;56.50;29.50;;;;;;;3.64;100.00;100719.46;105817;1265;104165;-80
2024/03/15 06:58:34;;;;;;;52.70;28.60;;;;;;;3.68;100.00;100717.86;106787;1259;100313;-79
2024/03/15 07:01:19;;;;;;;54.00;28.40;;;;;;;3.74;100.00;100718.92;105774;1260;99322;-81
2024/03/15 07:04:08;;;;;;;52.40;29.00;;;;;;;3.77;100.00;100721.17;106292;1259;99525;-80
2024/03/15 07:06:53;;;;;;;53.20;28.50;;;;;;;3.81;100.00;100719.48;106422;1264;99129;-79
2024/03/15 07:09:40;;;;;;;51.10;27.90;;;;;;;3.85;100.00;100722.92;106313;1259;104081;-79
2024/03/15 07:12:25;;;;;;;52.10;29.10;;;;;;;3.90;100.00;100724.06;105857;1259;99306;-79
2024/03/15 07:15:11;;;;;;;51.30;26.00;;;;;;;3.96;100.00;100723.05;105903;1259;99359;-84
2024/03/15 07:18:04;;;;;;;48.10;26.20;;;;;;;4.00;100.00;100720.68;106339;1259;99116;-84
2024/03/15 07:20:50;;;;;;;52.80;26.90;;;;;;;4.02;100.00;100719.95;106410;1259;100725;-84
2024/03/15 07:23:36;;;;;;;53.50;29.30;;;;;;;4.05;100.00;100718.30;105964;1265;104032;-84
2024/03/15 07:26:22;;;;;;;45.30;25.90;;;;;;;4.07;100.00;100714.76;105970;1259;99266;-84
2024/03/15 07:29:09;;;;;;;43.90;23.60;;;;;;;4.10;100.00;100713.19;105958;1265;99324;-84
2024/03/15 07:31:55;;;;;;;51.20;26.10;;;;;;;4.15;100.00;100713.62;105990;1264;99270;-83
2024/03/15 07:34:40;;;;;;;48.60;26.40;;;;;;;4.21;100.00;100708.78;106081;1259;99292;-83
2024/03/15 07:37:27;;;;;;;48.50;25.20;;;;;;;4.27;100.00;100701.50;106121;1259;102583;-91
2024/03/15 07:40:17;;;;;;;46.60;25.80;;;;;;;4.33;100.00;100700.42;106518;1259;99868;-89
2024/03/15 07:43:03;;;;;;;47.90;25.30;;;;;;;4.38;100.00;100699.72;106220;1268;99393;-84
2024/03/15 07:45:57;;;;;;;40.90;24.10;;;;;;;4.45;100.00;100704.58;106235;1259;99315;-84
2024/03/15 07:48:43;;;;;;;47.10;23.10;;;;;;;4.52;100.00;100709.94;106103;1260;99394;-79
2024/03/15 07:51:28;;;;;;;45.40;23.40;;;;;;;4.59;100.00;100710.98;105857;1265;104080;-79
2024/03/15 07:54:14;;;;;;;43.90;24.50;;;;;;;4.70;100.00;100711.05;106160;1260;99258;-78
2024/03/15 07:57:00;;;;;;;43.50;23.70;;;;;;;4.78;100.00;100712.34;105487;1259;99315;-78
2024/03/15 07:59:45;;;;;;;50.80;25.60;;;;;;;4.86;100.00;100709.78;105442;1264;99344;-82
2024/03/15 08:02:31;;;;;;;44.80;24.60;;;;;;;4.93;100.00;100710.23;106302;1259;99983;-81
2024/03/15 08:05:16;;;;;;;42.50;23.60;;;;;;;4.98;100.00;100711.69;105992;1265;102753;-84
2024/03/15 08:08:05;;;;;;;47.20;24.10;;;;;;;5.04;100.00;100714.55;105814;1262;99413;-83
2024/03/15 08:10:51;;;;;;;42.10;22.90;;;;;;;5.12;100.00;100714.64;106017;1259;99312;-85
2024/03/15 08:13:38;;;;;;;43.20;23.70;;;;;;;5.23;100.00;100709.71;106113;1265;99388;-84
2024/03/15 08:16:33;;;;;;;43.90;23.20;;;;;;;5.34;100.00;100709.86;106049;1259;99836;-83
2024/03/15 08:19:19;;;;;;;42.70;23.40;;;;;;;5.45;100.00;100711.77;106155;1265;103373;-86
2024/03/15 08:22:04;;;;;;;44.90;23.70;;;;;;;5.55;100.00;100713.73;106218;1260;100532;-84
2024/03/15 08:24:51;;;;;;;55.70;29.50;;;;;;;5.66;100.00;100708.38;106177;1260;99388;-89
2024/03/15 08:27:39;;;;;;;45.40;24.50;;;;;;;5.79;100.00;100708.39;106421;1260;99128;-85
2024/03/15 08:30:28;;;;;;;44.10;23.00;;;;;;;5.91;100.00;100713.17;106137;1265;99942;-83
2024/03/15 08:33:14;;;;;;;39.00;21.20;;;;;;;6.03;100.00;100710.32;106010;1265;104084;-85
2024/03/15 08:36:00;;;;;;;39.60;20.70;;;;;;;6.14;100.00;100705.14;106048;1260;100558;-85
2024/03/15 08:38:46;;;;;;;36.90;20.10;;;;;;;6.25;100.00;100707.41;105652;1265;99302;-88
2024/03/15 08:41:33;;;;;;;36.70;19.10;;;;;;;6.37;100.00;100708.46;106396;1260;99390;-88
2024/03/15 08:44:19;;;;;;;32.70;19.80;;;;;;;6.49;100.00;100704.34;105981;1259;99749;-84
2024/03/15 08:47:05;;;;;;;32.50;18.00;;;;;;;6.58;100.00;100702.22;105956;1259;104386;-79
2024/03/15 08:49:52;;;;;;;36.40;19.50;;;;;;;6.65;100.00;100701.63;106475;1263;99236;-80
2024/03/15 08:52:41;;;;;;;35.80;20.60;;;;;;;6.76;100.00;100701.87;106729;1260;99914;-79
2024/03/15 08:55:26;;;;;;;36.80;21.50;;;;;;;6.86;100.00;100697.02;106652;1265;100592;-80
2024/03/15 08:58:12;;;;;;;35.80;20.00;;;;;;;6.94;100.00;100696.59;106650;1259;98923;-80
2024/03/15 09:00:57;;;;;;;32.20;18.20;;;;;;;7.04;100.00;100700.89;106296;1265;103406;-79
2024/03/15 09:03:43;;;;;;;32.80;19.70;;;;;;;7.11;100.00;100701.04;106026;1260;100812;-83
2024/03/15 09:06:29;;;;;;;33.30;19.60;;;;;;;7.18;100.00;100699.53;106005;1265;99411;-80
2024/03/15 09:09:15;;;;;;;35.50;19.10;;;;;;;7.27;100.00;100695.75;106027;1263;99914;-83
2024/03/15 09:12:00;;;;;;;36.00;19.40;;;;;;;7.37;100.00;100690.15;105366;1260;99823;-84
2024/03/15 09:14:47;;;;;;;31.00;18.40;;;;;;;7.48;100.00;100687.21;106467;1260;102804;-89
2024/03/15 09:17:33;;;;;;;38.90;20.10;;;;;;;7.59;100.00;100688.25;106383;1267;101865;-80
2024/03/15 09:20:20;;;;;;;34.80;20.60;;;;;;;7.70;100.00;100687.75;106339;1259;99238;-87
2024/03/15 09:23:06;;;;;;;38.00;20.80;;;;;;;7.82;100.00;100689.77;106529;1265;99288;-88
2024/03/15 09:25:53;;;;;;;37.80;21.00;;;;;;;7.94;100.00;100684.62;106096;1268;99333;-82
2024/03/15 09:28:43;;;;;;;33.50;19.60;;;;;;;8.07;100.00;100687.61;105940;1263;103468;-82
2024/03/15 09:31:29;;;;;;;32.50;19.30;;;;;;;8.19;100.00;100685.23;105920;1265;99398;-83
2024/03/15 09:34:15;;;;;;;32.10;17.80;;;;;;;8.29;100.00;100685.17;106136;1259;100060;-84
2024/03/15 09:37:06;;;;;;;32.50;19.70;;;;;;;8.38;100.00;100687.42;106015;1265;99374;-83
2024/03/15 09:39:52;;;;;;;35.20;19.50;;;;;;;8.43;100.00;100683.23;106106;1259;99284;-85
2024/03/15 09:42:38;;;;;;;35.80;19.80;;;;;;;8.48;100.00;100684.34;106170;1266;104048;-80
2024/03/15 09:45:26;;;;;;;36.20;20.10;;;;;;;8.51;100.00;100681.42;106756;1260;100395;-79
2024/03/15 09:48:12;;;;;;;38.60;20.50;;;;;;;8.55;100.00;100678.58;106657;1259;99349;-79
2024/03/15 09:51:00;;;;;;;30.50;17.60;;;;;;;8.58;100.00;100678.59;106620;1259;99409;-88
2024/03/15 09:53:46;;;;;;;38.40;20.20;;;;;;;8.62;100.00;100675.68;106088;1259;99210;-84
2024/03/15 09:56:32;;;;;;;34.70;19.90;;;;;;;8.67;100.00;100674.77;106224;1265;102729;-84
2024/03/15 09:59:30;;;;;;;33.10;18.60;;;;;;;8.73;100.00;100670.30;105999;1264;100417;-80
2024/03/15 10:02:23;;;;;;;34.60;20.00;;;;;;;8.80;100.00;100670.39;106026;1264;99401;-82
2024/03/15 10:05:48;;;;;;;35.10;20.00;;;;;;;8.87;100.00;100669.40;106877;1259;99253;-89
2024/03/15 10:09:11;;;;;;;;;;;;;;;;;;;;;
2024/03/15 10:12:30;;;;;;;35.30;20.00;;;;;;;8.93;100.00;100668.80;106672;1263;103401;-86
2024/03/15 10:15:18;;;;;;;34.10;20.40;;;;;;;8.97;100.00;100669.26;106588;1265;100541;-87
2024/03/15 10:18:10;;;;;;;34.90;19.60;;;;;;;9.06;100.00;100668.60;106495;1259;99639;-87
2024/03/15 10:20:57;;;;;;;33.50;19.60;;;;;;;9.08;100.00;100666.89;106246;1259;99497;-86
2024/03/15 10:23:43;;;;;;;33.30;20.20;;;;;;;9.09;100.00;100666.24;106008;1264;97912;-85
2024/03/15 10:26:28;;;;;;;38.00;20.80;;;;;;;9.10;100.00;100660.13;105902;1259;104101;-85
2024/03/15 10:29:14;;;;;;;38.20;19.70;;;;;;;9.09;100.00;100659.66;105682;1265;99317;-85
2024/03/15 10:32:00;;;;;;;33.90;19.70;;;;;;;9.08;100.00;100656.20;105956;1260;99441;-85
2024/03/15 10:34:47;;;;;;;36.60;20.20;;;;;;;9.09;100.00;100656.06;105818;1259;99308;-84
2024/03/15 10:37:33;;;;;;;31.80;19.30;;;;;;;9.11;100.00;100657.05;105964;1260;97832;-82
2024/03/15 10:40:27;;;;;;;32.10;18.80;;;;;;;9.15;100.00;100654.52;105781;1265;103443;-83
2024/03/15 10:43:14;;;;;;;32.10;19.80;;;;;;;9.19;100.00;100651.69;105934;1265;99544;-83
2024/03/15 10:46:00;;;;;;;34.30;20.20;;;;;;;9.25;100.00;100649.61;105820;1259;99564;-85
2024/03/15 10:48:46;;;;;;;35.00;19.90;;;;;;;9.30;100.00;100647.20;105790;1260;99254;-83
2024/03/15 10:51:36;;;;;;;30.60;18.00;;;;;;;9.36;100.00;100643.00;105914;1259;99833;-83
2024/03/15 10:54:23;;;;;;;36.00;19.20;;;;;;;9.43;100.00;100641.52;105994;1260;102807;-85
2024/03/15 10:57:10;;;;;;;34.20;19.80;;;;;;;9.48;100.00;100640.54;105770;1260;99333;-85
2024/03/15 10:59:56;;;;;;;31.20;19.00;;;;;;;9.54;100.00;100637.61;106030;1260;99630;-85
2024/03/15 11:02:43;;;;;;;33.90;19.30;;;;;;;9.60;100.00;100634.80;106497;1259;99307;-87
2024/03/15 11:05:30;;;;;;;28.90;17.90;;;;;;;9.65;100.00;100633.35;106186;1264;100035;-86
2024/03/15 11:08:19;;;;;;;36.00;19.30;;;;;;;9.69;100.00;100631.20;106253;1265;102783;-88
2024/03/15 11:11:06;;;;;;;26.30;16.80;;;;;;;9.77;100.00;100633.73;106243;1267;99369;-85
2024/03/15 11:14:10;;;;;;;35.50;21.40;;;;;;;9.84;100.00;100627.50;106345;1259;99322;-87
2024/03/15 11:16:59;;;;;;;32.40;19.70;;;;;;;9.93;100.00;100621.48;106101;1268;99311;-89
2024/03/15 11:19:46;;;;;;;30.80;18.20;;;;;;;10.03;100.00;100618.70;106576;1264;99806;-88
2024/03/15 11:22:31;;;;;;;28.60;18.10;;;;;;;10.10;99.74;100612.20;106305;1259;102915;-85
2024/03/15 11:25:19;;;;;;;28.40;18.00;;;;;;;10.18;99.73;100609.48;106435;1263;100542;-87
2024/03/15 11:28:06;;;;;;;25.90;18.20;;;;;;;10.27;99.52;100611.63;106213;1261;99221;-86
2024/03/15 11:30:52;;;;;;;27.70;17.00;;;;;;;10.36;99.47;100608.31;106319;1265;99419;-84
2024/03/15 11:33:38;;;;;;;28.50;18.10;;;;;;;10.44;99.68;100601.63;105829;1260;99884;-81
2024/03/15 11:36:25;;;;;;;28.60;17.40;;;;;;;10.50;99.28;100599.72;105743;1266;102795;-84
2024/03/15 11:39:11;;;;;;;29.60;18.90;;;;;;;10.57;98.78;100595.98;105825;1267;99652;-85
2024/03/15 11:42:07;;;;;;;29.80;18.10;;;;;;;10.64;98.27;100591.98;106207;1265;99484;-85
2024/03/15 11:44:54;;;;;;;24.70;15.50;;;;;;;10.72;98.20;100589.00;106195;1260;99282;-87
2024/03/15 11:47:40;;;;;;;27.00;15.30;;;;;;;10.80;97.67;100587.73;106146;1263;99669;-86
2024/03/15 11:50:26;;;;;;;25.40;16.20;;;;;;;10.85;96.80;100582.40;106040;1266;102790;-88
2024/03/15 11:53:12;;;;;;;29.10;17.20;;;;;;;10.90;96.54;100581.99;105901;1265;100517;-87
2024/03/15 11:55:59;;;;;;;28.70;16.00;;;;;;;10.93;96.01;100580.38;106027;1260;99556;-86
2024/03/15 11:58:45;;;;;;;25.40;16.00;;;;;;;10.97;96.16;100576.55;106616;1261;99121;-87
2024/03/15 12:01:31;;;;;;;25.10;14.50;;;;;;;11.01;95.99;100571.35;106776;1260;99753;-85
2024/03/15 12:04:16;;;;;;;25.70;16.30;;;;;;;11.05;95.64;100569.65;106237;1264;102803;-85
2024/03/15 12:07:06;;;;;;;26.00;14.70;;;;;;;11.09;94.83;100570.08;106044;1261;100411;-86
2024/03/15 12:09:59;;;;;;;25.80;14.80;;;;;;;11.11;94.68;100564.58;105954;1265;99622;-86
2024/03/15 12:12:46;;;;;;;24.90;14.70;;;;;;;11.16;94.52;100558.05;105939;1263;99374;-84
2024/03/15 12:15:32;;;;;;;21.40;13.00;;;;;;;11.21;94.11;100554.20;105973;1259;99278;-82
2024/03/15 12:18:19;;;;;;;18.60;12.80;;;;;;;11.27;93.91;100553.27;105822;1262;102676;-83
2024/03/15 12:21:11;;;;;;;20.60;12.80;;;;;;;11.33;92.99;100554.73;106130;1259;99898;-86
2024/03/15 12:23:56;;;;;;;24.00;15.20;;;;;;;11.38;93.01;100550.22;106350;1263;99237;-85
2024/03/15 12:26:42;;;;;;;22.50;13.30;;;;;;;11.44;92.85;100541.29;105975;1266;99421;-85
2024/03/15 12:29:28;;;;;;;20.20;13.40;;;;;;;11.48;92.50;100535.54;105826;1260;97268;-83
2024/03/15 12:32:14;;;;;;;20.80;13.30;;;;;;;11.52;92.43;100533.55;105996;1264;103567;-85
2024/03/15 12:35:00;;;;;;;19.30;12.40;;;;;;;11.59;92.31;100529.56;106251;1265;100540;-87
2024/03/15 12:37:46;;;;;;;18.50;11.50;;;;;;;11.68;91.59;100530.84;106028;1259;99056;-86